Anadarko, Oklahoma
Current Conditions -  °F | °C
As of 9:55 AM on Thursday 30 Oct 2014 (Local Time) from KFSI Reporting Station
Clear Clear  
Wind Chill: 61°   Ceiling: Unl
Heat Index: 61°   Visibility: 10mi
Dew Point: 45°   Wind: 6mph
Humidity: 56%   Direction: 210°SSW
Pressure: 30.14"   Gusts: NA
Location:  35.07°N, 98.24°W
Report Text: KFSI 301455Z 21005KT 10SM CLR 16/07 A3014 RMK AO2A SLP203 T01620073 53012 $
Loading
Personal Weather Stations






























Interactive Weather Map
Tropical Storm Tracking
New forecast layout! Learn more

10-Day Weather Forecast

Advertisements
Track Severe Weather on mobile